Time;durP1;ratioP1;P1;durP2;ratioP2;P2;SDS_P1;SDS_P2;PMS_P1;PMS_P2;Temp;Humidity;BMP_temperature;BMP_pressure;BME280_temperature;BME280_humidity;BME280_pressure;Samples;Min_cycle;Max_cycle;Signal;HPM_P1;HPM_P2
2021/08/14 00:00:48;;;;;;;0.85;0.52;;;;;13.60;101456.00;;;;5058136;28;20039;-71
2021/08/14 00:03:14;;;;;;;1.15;0.50;;;;;13.60;101454.00;;;;5066041;28;20028;-70
2021/08/14 00:05:41;;;;;;;2.53;0.68;;;;;13.60;101444.00;;;;5065611;28;20037;-69
2021/08/14 00:08:07;;;;;;;1.17;0.50;;;;;13.60;101448.00;;;;5065297;28;20495;-71
2021/08/14 00:10:34;;;;;;;8.13;1.00;;;;;13.70;101452.00;;;;5065886;28;20052;-71
2021/08/14 00:13:01;;;;;;;2.05;0.70;;;;;13.70;101470.00;;;;5065309;28;20020;-67
2021/08/14 00:15:27;;;;;;;2.35;0.50;;;;;13.70;101468.00;;;;5065574;28;20029;-71
2021/08/14 00:17:54;;;;;;;2.05;0.57;;;;;13.70;101473.00;;;;5065417;28;20029;-70
2021/08/14 00:20:20;;;;;;;5.55;1.05;;;;;13.70;101463.00;;;;5047369;28;20130;-69
2021/08/14 00:22:47;;;;;;;3.17;0.80;;;;;13.80;101468.00;;;;5061346;28;20036;-70
2021/08/14 00:25:13;;;;;;;1.23;1.00;;;;;13.80;101462.00;;;;5065014;28;20029;-69
2021/08/14 00:27:40;;;;;;;2.17;0.40;;;;;13.80;101473.00;;;;5065475;28;20028;-69
2021/08/14 00:30:07;;;;;;;0.50;0.50;;;;;13.80;101458.00;;;;5069393;28;20492;-70
2021/08/14 00:32:33;;;;;;;1.05;0.50;;;;;13.80;101455.00;;;;5070241;28;21143;-68
2021/08/14 00:35:00;;;;;;;7.88;2.08;;;;;13.80;101463.00;;;;5069000;28;20614;-69
2021/08/14 00:37:26;;;;;;;2.72;0.85;;;;;13.80;101457.00;;;;5069561;28;20912;-70
2021/08/14 00:39:53;;;;;;;2.42;0.65;;;;;13.80;101459.00;;;;5069438;28;20052;-70
2021/08/14 00:42:20;;;;;;;3.20;0.70;;;;;13.90;101462.00;;;;5069399;28;20086;-70
2021/08/14 00:44:46;;;;;;;3.28;0.40;;;;;13.90;101452.00;;;;5069455;28;20024;-70
2021/08/14 00:47:13;;;;;;;0.55;0.55;;;;;13.90;101459.00;;;;5069185;28;20059;-69
2021/08/14 00:49:39;;;;;;;0.52;0.50;;;;;13.90;101463.00;;;;5068581;28;20033;-69
2021/08/14 00:52:06;;;;;;;0.98;0.70;;;;;13.90;101454.00;;;;5069427;28;21240;-70
2021/08/14 00:54:33;;;;;;;1.58;0.60;;;;;13.90;101458.00;;;;5069530;28;20032;-69
2021/08/14 00:56:59;;;;;;;2.40;0.50;;;;;13.90;101448.00;;;;5069863;28;20024;-70
2021/08/14 00:59:31;;;;;;;1.05;0.80;;;;;13.90;101453.00;;;;5068288;28;20020;-69
2021/08/14 01:01:57;;;;;;;0.82;0.70;;;;;13.90;101447.00;;;;5048782;28;20488;-70
2021/08/14 01:04:24;;;;;;;1.05;0.60;;;;;13.90;101448.00;;;;5049148;28;20047;-69
2021/08/14 01:06:51;;;;;;;1.02;0.52;;;;;13.90;101457.00;;;;5048666;28;20147;-68
2021/08/14 01:09:18;;;;;;;2.90;0.98;;;;;13.90;101453.00;;;;5048551;28;20032;-70
2021/08/14 01:11:45;;;;;;;1.33;0.50;;;;;13.90;101442.00;;;;5048881;28;20071;-70
2021/08/14 01:14:13;;;;;;;2.78;0.60;;;;;14.00;101452.00;;;;5049249;28;20025;-71
2021/08/14 01:16:40;;;;;;;3.63;0.60;;;;;14.00;101450.00;;;;5048662;28;20090;-69
2021/08/14 01:19:07;;;;;;;2.65;0.70;;;;;14.00;101438.00;;;;5049094;28;20060;-70
2021/08/14 01:21:34;;;;;;;0.60;0.60;;;;;14.00;101435.00;;;;5048440;28;20032;-70
2021/08/14 01:24:02;;;;;;;1.23;0.70;;;;;14.00;101432.00;;;;5048771;28;20071;-70
2021/08/14 01:26:31;;;;;;;1.88;0.60;;;;;14.10;101433.00;;;;5048013;28;20025;-70
2021/08/14 01:28:58;;;;;;;1.80;0.70;;;;;14.00;101431.00;;;;5048271;28;20029;-69
2021/08/14 01:31:24;;;;;;;3.70;0.60;;;;;14.00;101430.00;;;;5047872;28;20033;-69
2021/08/14 01:33:51;;;;;;;1.13;0.70;;;;;14.10;101436.00;;;;5049488;28;20063;-70
2021/08/14 01:36:18;;;;;;;1.90;0.70;;;;;14.00;101434.00;;;;5048110;28;20073;-69
2021/08/14 01:38:55;;;;;;;0.90;0.80;;;;;14.10;101418.00;;;;5047859;28;20029;-72
2021/08/14 01:41:23;;;;;;;3.63;1.02;;;;;14.00;101408.00;;;;5047191;28;20056;-71
2021/08/14 01:43:53;;;;;;;11.43;1.77;;;;;14.00;101415.00;;;;5048467;28;20129;-70
2021/08/14 01:46:19;;;;;;;1.98;0.70;;;;;13.90;101414.00;;;;5048505;28;20033;-71
2021/08/14 01:48:46;;;;;;;1.80;0.70;;;;;13.90;101407.00;;;;5048050;28;20578;-69
2021/08/14 01:51:13;;;;;;;1.08;0.70;;;;;14.00;101432.00;;;;5047685;28;20033;-72
2021/08/14 01:53:46;;;;;;;3.03;0.88;;;;;14.00;101411.00;;;;5048247;28;20029;-70
2021/08/14 01:56:12;;;;;;;0.63;0.55;;;;;14.00;101412.00;;;;5047831;28;20031;-71
2021/08/14 01:58:39;;;;;;;4.15;0.60;;;;;13.90;101415.00;;;;5048755;28;20549;-70
2021/08/14 02:01:05;;;;;;;2.92;0.80;;;;;14.00;101419.00;;;;5062175;28;20115;-70
2021/08/14 02:03:32;;;;;;;5.47;0.77;;;;;14.00;101426.00;;;;5068088;28;20032;-70
2021/08/14 02:05:58;;;;;;;2.72;0.70;;;;;14.00;101424.00;;;;5068235;28;20027;-71
2021/08/14 02:08:25;;;;;;;3.72;1.20;;;;;14.00;101419.00;;;;5068045;28;20057;-69
2021/08/14 02:10:51;;;;;;;3.10;0.80;;;;;14.00;101412.00;;;;5067965;28;20024;-69
2021/08/14 02:13:18;;;;;;;0.95;0.60;;;;;14.10;101423.00;;;;5068061;28;20025;-70
2021/08/14 02:15:44;;;;;;;1.08;0.80;;;;;14.10;101413.00;;;;5067832;28;20028;-70
2021/08/14 02:18:11;;;;;;;2.10;0.70;;;;;14.10;101422.00;;;;5067513;28;20036;-69
2021/08/14 02:20:37;;;;;;;1.65;0.63;;;;;14.20;101423.00;;;;5067445;28;20028;-70
2021/08/14 02:23:04;;;;;;;1.60;0.55;;;;;14.10;101421.00;;;;5067546;28;20033;-69
2021/08/14 02:25:31;;;;;;;2.50;0.80;;;;;14.00;101419.00;;;;5067233;28;20519;-70
2021/08/14 02:27:57;;;;;;;2.40;0.90;;;;;14.00;101413.00;;;;5067779;28;20384;-69
2021/08/14 02:30:24;;;;;;;1.58;0.60;;;;;14.00;101417.00;;;;5068300;28;20031;-71
2021/08/14 02:32:50;;;;;;;0.95;0.65;;;;;14.00;101419.00;;;;5067712;28;20506;-69
2021/08/14 02:35:17;;;;;;;3.15;0.80;;;;;14.00;101425.00;;;;5067656;28;20021;-70
2021/08/14 02:37:43;;;;;;;2.17;0.70;;;;;14.00;101410.00;;;;5067126;28;20029;-70
2021/08/14 02:40:10;;;;;;;2.05;0.70;;;;;13.90;101411.00;;;;5067207;28;20035;-69
2021/08/14 02:42:43;;;;;;;2.08;0.77;;;;;13.90;101429.00;;;;5067099;28;20029;-70
2021/08/14 02:45:11;;;;;;;3.55;0.70;;;;;14.00;101415.00;;;;5067037;28;20103;-68
2021/08/14 02:47:39;;;;;;;2.35;0.63;;;;;13.90;101415.00;;;;5066815;28;20024;-69
2021/08/14 02:50:07;;;;;;;1.52;0.77;;;;;13.90;101418.00;;;;5067166;28;20036;-71
2021/08/14 02:52:33;;;;;;;5.70;1.10;;;;;13.90;101420.00;;;;5066204;28;20028;-70
2021/08/14 02:55:00;;;;;;;2.75;1.00;;;;;13.90;101420.00;;;;5050013;28;20474;-70
2021/08/14 02:57:26;;;;;;;7.43;1.70;;;;;13.90;101416.00;;;;5067056;28;20617;-71
2021/08/14 02:59:53;;;;;;;1.55;0.85;;;;;13.90;101430.00;;;;5061923;28;20052;-69
2021/08/14 03:02:19;;;;;;;2.42;1.20;;;;;13.80;101423.00;;;;5046981;28;20078;-69
2021/08/14 03:04:46;;;;;;;2.33;0.90;;;;;13.70;101411.00;;;;5046798;28;20088;-69
2021/08/14 03:07:13;;;;;;;1.20;0.90;;;;;13.60;101406.00;;;;5046111;28;20762;-70
2021/08/14 03:09:39;;;;;;;1.58;0.80;;;;;13.40;101409.00;;;;5046272;28;20389;-70
2021/08/14 03:12:06;;;;;;;1.77;1.00;;;;;13.30;101417.00;;;;5047310;28;20051;-70
2021/08/14 03:14:32;;;;;;;2.08;0.80;;;;;13.30;101415.00;;;;5046903;28;20075;-70
2021/08/14 03:16:59;;;;;;;3.72;1.05;;;;;13.20;101406.00;;;;5046551;28;20496;-70
2021/08/14 03:19:25;;;;;;;3.05;1.00;;;;;13.20;101413.00;;;;5046965;28;20025;-70
2021/08/14 03:21:54;;;;;;;3.45;1.00;;;;;13.10;101419.00;;;;5044970;28;20160;-70
2021/08/14 03:24:21;;;;;;;4.93;1.17;;;;;13.00;101412.00;;;;5046848;28;20031;-71
2021/08/14 03:26:48;;;;;;;2.42;1.02;;;;;13.00;101412.00;;;;5046818;28;20025;-69
2021/08/14 03:29:14;;;;;;;2.65;1.10;;;;;13.00;101400.00;;;;5045145;28;20040;-69
2021/08/14 03:31:41;;;;;;;2.80;0.80;;;;;12.90;101404.00;;;;5046202;28;20500;-70
2021/08/14 03:34:08;;;;;;;3.95;1.00;;;;;12.80;101420.00;;;;5045801;28;20078;-70
2021/08/14 03:36:35;;;;;;;3.78;0.90;;;;;12.70;101401.00;;;;5046416;28;20065;-70
2021/08/14 03:39:01;;;;;;;2.78;0.90;;;;;12.60;101413.00;;;;5046862;28;20033;-69
2021/08/14 03:41:28;;;;;;;4.45;1.25;;;;;12.50;101394.00;;;;5046400;28;20087;-71
2021/08/14 03:43:55;;;;;;;3.65;1.10;;;;;12.50;101397.00;;;;5046778;28;20021;-70
2021/08/14 03:46:21;;;;;;;1.02;0.88;;;;;12.40;101409.00;;;;5045953;28;20035;-70
2021/08/14 03:48:48;;;;;;;3.47;1.15;;;;;12.40;101423.00;;;;5045744;28;20055;-70
2021/08/14 03:51:14;;;;;;;3.08;0.90;;;;;12.30;101404.00;;;;5046433;28;20064;-69
2021/08/14 03:53:41;;;;;;;4.70;1.05;;;;;12.20;101413.00;;;;5046121;28;20040;-70
2021/08/14 03:56:07;;;;;;;2.22;0.95;;;;;12.20;101406.00;;;;5045824;28;20056;-70
2021/08/14 03:58:35;;;;;;;2.78;0.95;;;;;12.10;101410.00;;;;5046555;28;20033;-69
2021/08/14 04:01:04;;;;;;;2.25;0.95;;;;;12.00;101408.00;;;;5059794;28;20561;-71
2021/08/14 04:03:31;;;;;;;1.85;1.10;;;;;12.00;101404.00;;;;5067009;28;20120;-69
2021/08/14 04:05:58;;;;;;;2.15;1.13;;;;;11.90;101403.00;;;;5070515;28;20394;-70
2021/08/14 04:08:25;;;;;;;4.57;1.50;;;;;11.80;101401.00;;;;5052553;28;20514;-71
2021/08/14 04:10:52;;;;;;;2.35;1.20;;;;;11.80;101405.00;;;;5070244;28;20067;-70
2021/08/14 04:13:19;;;;;;;1.35;0.90;;;;;11.80;101418.00;;;;5070172;28;20059;-70
2021/08/14 04:15:45;;;;;;;3.67;1.25;;;;;11.70;101387.00;;;;5069411;28;20103;-71
2021/08/14 04:18:12;;;;;;;3.42;1.10;;;;;11.70;101384.00;;;;5069879;28;20025;-71
2021/08/14 04:20:39;;;;;;;6.10;1.25;;;;;11.60;101400.00;;;;5069706;28;20024;-69
2021/08/14 04:23:06;;;;;;;2.75;1.15;;;;;11.70;101392.00;;;;5069860;28;20051;-70
2021/08/14 04:25:32;;;;;;;3.17;1.10;;;;;11.60;101388.00;;;;5069756;28;20567;-69
2021/08/14 04:27:59;;;;;;;1.90;1.30;;;;;11.60;101386.00;;;;5069529;28;20694;-70
2021/08/14 04:30:25;;;;;;;2.85;1.00;;;;;11.50;101379.00;;;;5069656;28;20399;-70
2021/08/14 04:32:53;;;;;;;4.80;1.00;;;;;11.50;101377.00;;;;5069476;28;20032;-71
2021/08/14 04:35:19;;;;;;;3.33;1.10;;;;;11.40;101385.00;;;;5069966;28;20035;-71
2021/08/14 04:37:46;;;;;;;2.70;1.00;;;;;11.40;101372.00;;;;5069572;28;20598;-69
2021/08/14 04:40:15;;;;;;;1.88;1.00;;;;;11.40;101368.00;;;;5068839;28;20068;-70
2021/08/14 04:42:42;;;;;;;1.35;0.93;;;;;11.30;101351.00;;;;5069124;28;20067;-70
2021/08/14 04:45:10;;;;;;;3.60;1.00;;;;;11.30;101356.00;;;;5069292;28;20081;-69
2021/08/14 04:47:37;;;;;;;1.98;1.25;;;;;11.30;101364.00;;;;5069816;28;20032;-70
2021/08/14 04:50:08;;;;;;;4.25;1.35;;;;;11.30;101362.00;;;;5069098;28;20035;-70
2021/08/14 04:52:35;;;;;;;4.65;1.20;;;;;11.20;101374.00;;;;5069264;28;20487;-69
2021/08/14 04:55:03;;;;;;;6.07;1.25;;;;;11.20;101349.00;;;;5070093;28;20033;-70
2021/08/14 04:57:29;;;;;;;2.95;1.13;;;;;11.10;101357.00;;;;5068751;28;20028;-69
2021/08/14 04:59:56;;;;;;;1.73;1.10;;;;;11.10;101341.00;;;;5064668;28;20028;-70
2021/08/14 05:02:23;;;;;;;2.80;0.90;;;;;11.00;101360.00;;;;5047396;28;20048;-70
2021/08/14 05:04:49;;;;;;;4.07;0.93;;;;;11.00;101340.00;;;;5049165;28;20104;-69
2021/08/14 05:07:16;;;;;;;2.65;1.10;;;;;11.10;101345.00;;;;5048670;28;20072;-68
2021/08/14 05:09:45;;;;;;;1.05;0.90;;;;;11.00;101338.00;;;;5049127;28;20041;-71
2021/08/14 05:12:12;;;;;;;3.22;1.10;;;;;11.00;101331.00;;;;5048688;28;20158;-69
2021/08/14 05:14:38;;;;;;;6.90;1.20;;;;;11.10;101330.00;;;;5049448;28;20024;-71
2021/08/14 05:17:05;;;;;;;2.70;1.10;;;;;11.00;101329.00;;;;5049041;28;20501;-70
2021/08/14 05:19:32;;;;;;;2.42;1.38;;;;;11.10;101315.00;;;;5049703;28;20476;-70
2021/08/14 05:21:58;;;;;;;2.30;1.08;;;;;11.10;101327.00;;;;5048929;28;20129;-70
2021/08/14 05:24:25;;;;;;;6.30;1.50;;;;;11.10;101314.00;;;;5048455;28;20071;-71
2021/08/14 05:26:51;;;;;;;1.52;1.10;;;;;11.10;101311.00;;;;5048679;28;20040;-69
2021/08/14 05:29:19;;;;;;;3.35;1.17;;;;;11.00;101304.00;;;;5048963;28;20079;-69
2021/08/14 05:31:45;;;;;;;6.47;1.15;;;;;11.00;101308.00;;;;5048330;28;20559;-70
2021/08/14 05:34:12;;;;;;;3.45;1.45;;;;;11.00;101299.00;;;;5048193;28;20044;-69
2021/08/14 05:36:38;;;;;;;3.78;1.40;;;;;10.90;101305.00;;;;5048251;28;20377;-69
2021/08/14 05:39:05;;;;;;;9.63;1.40;;;;;11.00;101305.00;;;;5048145;28;20534;-71
2021/08/14 05:41:32;;;;;;;3.85;1.10;;;;;11.10;101288.00;;;;5047836;28;20024;-70
2021/08/14 05:43:59;;;;;;;2.88;1.10;;;;;11.10;101285.00;;;;5048945;28;20032;-70
2021/08/14 05:46:25;;;;;;;2.00;0.95;;;;;11.10;101283.00;;;;5048428;28;20052;-71
2021/08/14 05:48:52;;;;;;;1.98;1.00;;;;;11.20;101290.00;;;;5048664;28;20067;-69
2021/08/14 05:51:18;;;;;;;4.32;1.02;;;;;11.30;101264.00;;;;5048630;28;20052;-70
2021/08/14 05:53:45;;;;;;;6.13;1.40;;;;;11.30;101270.00;;;;5048030;28;20036;-69
2021/08/14 05:56:11;;;;;;;4.18;1.27;;;;;11.30;101272.00;;;;5048517;28;20029;-70
2021/08/14 05:58:38;;;;;;;2.33;1.00;;;;;11.30;101265.00;;;;5048022;28;20036;-70
2021/08/14 06:01:04;;;;;;;2.55;1.00;;;;;11.40;101283.00;;;;5062384;28;20036;-71
2021/08/14 06:03:35;;;;;;;3.13;1.05;;;;;11.40;101277.00;;;;5068081;28;20046;-71
2021/08/14 06:06:02;;;;;;;3.38;1.13;;;;;11.50;101284.00;;;;5067984;28;20056;-69
2021/08/14 06:08:30;;;;;;;3.33;0.93;;;;;11.50;101268.00;;;;5067986;28;20123;-69
2021/08/14 06:10:57;;;;;;;2.15;1.00;;;;;11.60;101284.00;;;;5068067;28;20033;-71
2021/08/14 06:13:24;;;;;;;2.78;0.98;;;;;11.60;101250.00;;;;5067818;28;20907;-70
2021/08/14 06:15:50;;;;;;;2.22;0.93;;;;;11.60;101246.00;;;;5068138;28;20032;-68
2021/08/14 06:18:17;;;;;;;4.57;1.20;;;;;11.60;101248.00;;;;5067820;28;20032;-70
2021/08/14 06:20:44;;;;;;;3.47;1.17;;;;;11.50;101252.00;;;;5067369;28;20484;-71
2021/08/14 06:23:10;;;;;;;3.38;0.95;;;;;11.50;101249.00;;;;5067707;28;20090;-69
2021/08/14 06:25:37;;;;;;;5.28;1.20;;;;;11.50;101241.00;;;;5067375;28;20032;-71
2021/08/14 06:28:04;;;;;;;1.55;1.00;;;;;11.50;101251.00;;;;5067579;28;20032;-69
2021/08/14 06:30:30;;;;;;;3.08;1.25;;;;;11.40;101256.00;;;;5067299;28;20563;-69
2021/08/14 06:32:58;;;;;;;1.58;0.88;;;;;11.40;101223.00;;;;5067616;28;20032;-71
2021/08/14 06:35:25;;;;;;;1.85;1.17;;;;;11.40;101231.00;;;;5067604;28;20102;-70
2021/08/14 06:37:51;;;;;;;0.93;0.90;;;;;11.30;101242.00;;;;5067641;28;20487;-71
2021/08/14 06:40:18;;;;;;;4.55;1.08;;;;;11.30;101234.00;;;;5067755;28;20035;-69
2021/08/14 06:42:44;;;;;;;3.25;1.13;;;;;11.40;101237.00;;;;5067008;28;20028;-70
2021/08/14 06:45:11;;;;;;;6.07;1.30;;;;;11.40;101242.00;;;;5067095;28;20051;-69
2021/08/14 06:47:38;;;;;;;3.28;1.20;;;;;11.40;101236.00;;;;5066925;28;20032;-70
2021/08/14 06:50:06;;;;;;;2.15;1.13;;;;;11.40;101240.00;;;;5066547;28;20566;-69
2021/08/14 06:52:35;;;;;;;5.05;1.15;;;;;11.40;101232.00;;;;5049249;28;20070;-69
2021/08/14 06:55:03;;;;;;;8.63;1.10;;;;;11.40;101230.00;;;;5067238;28;20032;-71
2021/08/14 06:57:29;;;;;;;5.05;1.20;;;;;11.40;101219.00;;;;5067380;28;20047;-71
2021/08/14 06:59:56;;;;;;;2.03;1.05;;;;;11.40;101237.00;;;;5062011;28;20029;-70
2021/08/14 07:02:22;;;;;;;2.42;1.23;;;;;11.40;101232.00;;;;5046039;28;20503;-71
2021/08/14 07:04:49;;;;;;;5.22;1.10;;;;;11.40;101234.00;;;;5046911;28;20032;-70
2021/08/14 07:07:19;;;;;;;3.08;1.10;;;;;11.40;101229.00;;;;5044805;28;20982;-71
2021/08/14 07:09:45;;;;;;;3.03;1.10;;;;;11.40;101209.00;;;;5047016;28;20043;-70
2021/08/14 07:12:14;;;;;;;6.70;1.00;;;;;11.40;101233.00;;;;5046587;28;20039;-70
2021/08/14 07:14:41;;;;;;;2.50;1.00;;;;;11.40;101225.00;;;;5046941;28;20065;-69
2021/08/14 07:17:08;;;;;;;6.05;1.08;;;;;11.40;101226.00;;;;5046183;28;20547;-71
2021/08/14 07:19:34;;;;;;;2.00;0.80;;;;;11.40;101220.00;;;;5046705;28;20045;-70
2021/08/14 07:22:01;;;;;;;2.08;0.90;;;;;11.50;101217.00;;;;5047124;28;20037;-71
2021/08/14 07:24:28;;;;;;;4.00;1.20;;;;;11.50;101230.00;;;;5046977;28;20071;-69
2021/08/14 07:26:54;;;;;;;2.95;1.23;;;;;11.50;101208.00;;;;5046555;28;20423;-70
2021/08/14 07:29:21;;;;;;;2.97;1.20;;;;;11.50;101216.00;;;;5045907;28;20079;-70
2021/08/14 07:31:47;;;;;;;1.85;1.00;;;;;11.40;101220.00;;;;5046326;28;20029;-69
2021/08/14 07:34:14;;;;;;;2.40;1.08;;;;;11.40;101210.00;;;;5046718;28;20547;-69
2021/08/14 07:36:40;;;;;;;2.15;0.95;;;;;11.40;101208.00;;;;5046556;28;20502;-70
2021/08/14 07:39:07;;;;;;;1.00;0.70;;;;;11.50;101222.00;;;;5045597;28;20656;-70
2021/08/14 07:41:34;;;;;;;3.80;0.93;;;;;11.50;101205.00;;;;5046519;28;20039;-71
2021/08/14 07:44:00;;;;;;;2.08;1.02;;;;;11.50;101200.00;;;;5046505;28;20603;-70
2021/08/14 07:46:27;;;;;;;2.88;0.93;;;;;11.60;101236.00;;;;5045257;28;20496;-70
2021/08/14 07:48:53;;;;;;;1.48;0.98;;;;;11.70;101216.00;;;;5046450;28;20024;-71
2021/08/14 07:51:20;;;;;;;6.53;1.00;;;;;11.70;101206.00;;;;5045810;28;20033;-70
2021/08/14 07:53:46;;;;;;;0.68;0.68;;;;;11.80;101194.00;;;;5046020;28;20439;-69
2021/08/14 07:56:13;;;;;;;1.63;0.90;;;;;11.80;101179.00;;;;5046679;28;20068;-69
2021/08/14 07:58:39;;;;;;;3.33;1.00;;;;;11.80;101186.00;;;;5044601;28;20025;-71
2021/08/14 08:01:06;;;;;;;3.05;1.05;;;;;11.90;101196.00;;;;5060280;28;20024;-69
2021/08/14 08:03:33;;;;;;;1.08;0.90;;;;;11.90;101191.00;;;;5066211;28;20038;-69
2021/08/14 08:05:59;;;;;;;2.83;1.00;;;;;11.90;101177.00;;;;5066113;28;20029;-71
2021/08/14 08:08:26;;;;;;;2.13;0.88;;;;;11.90;101182.00;;;;5065775;28;20059;-70
2021/08/14 08:10:52;;;;;;;2.63;0.98;;;;;11.90;101162.00;;;;5066545;28;20047;-69
2021/08/14 08:13:19;;;;;;;2.60;0.98;;;;;12.00;101169.00;;;;5065680;28;20555;-69
2021/08/14 08:15:45;;;;;;;1.95;0.82;;;;;12.00;101171.00;;;;5066050;28;20029;-70
2021/08/14 08:18:15;;;;;;;1.08;0.70;;;;;12.10;101153.00;;;;5066449;28;20489;-69
2021/08/14 08:20:41;;;;;;;3.53;0.85;;;;;12.10;101172.00;;;;5066234;28;20097;-70
2021/08/14 08:23:08;;;;;;;1.60;0.70;;;;;12.20;101174.00;;;;5047945;28;20024;-69
2021/08/14 08:25:34;;;;;;;2.13;0.63;;;;;12.30;101184.00;;;;5066068;28;20021;-70
2021/08/14 08:28:04;;;;;;;3.60;0.70;;;;;12.30;101187.00;;;;5065397;28;20052;-70
2021/08/14 08:30:32;;;;;;;0.85;0.80;;;;;12.40;101171.00;;;;5065904;28;20068;-69
2021/08/14 08:32:59;;;;;;;1.40;0.70;;;;;12.50;101188.00;;;;5065377;28;20028;-69
2021/08/14 08:35:25;;;;;;;3.90;0.65;;;;;12.50;101181.00;;;;5066274;28;20032;-70
2021/08/14 08:37:52;;;;;;;1.40;0.52;;;;;12.50;101166.00;;;;5066524;28;20020;-71
2021/08/14 08:40:19;;;;;;;0.88;0.60;;;;;12.60;101185.00;;;;5065367;28;20135;-71
2021/08/14 08:42:48;;;;;;;0.90;0.50;;;;;12.60;101178.00;;;;5065286;28;20392;-72
2021/08/14 08:45:15;;;;;;;0.98;0.60;;;;;12.60;101189.00;;;;5065993;28;20488;-71
2021/08/14 08:47:44;;;;;;;0.60;0.50;;;;;12.60;101191.00;;;;5065734;28;20032;-69
2021/08/14 08:50:13;;;;;;;2.28;0.68;;;;;12.60;101171.00;;;;5068242;28;20111;-70
2021/08/14 08:52:42;;;;;;;2.65;0.90;;;;;12.70;101181.00;;;;5068819;28;20036;-71
2021/08/14 08:55:12;;;;;;;0.63;0.60;;;;;12.70;101199.00;;;;5068814;28;20028;-70
2021/08/14 08:57:38;;;;;;;0.73;0.50;;;;;12.70;101190.00;;;;5069341;28;20074;-71
2021/08/14 09:00:06;;;;;;;1.45;0.55;;;;;12.70;101189.00;;;;5062888;28;20033;-69
2021/08/14 09:02:35;;;;;;;0.70;0.63;;;;;12.70;101208.00;;;;5048729;28;20061;-71
2021/08/14 09:05:16;;;;;;;1.30;0.50;;;;;12.70;101216.00;;;;5048966;28;20024;-68
2021/08/14 09:07:45;;;;;;;0.75;0.50;;;;;12.60;101197.00;;;;5049062;28;20519;-70
2021/08/14 09:10:23;;;;;;;1.17;0.70;;;;;12.60;101193.00;;;;5049221;28;20146;-70
2021/08/14 09:12:50;;;;;;;1.20;0.50;;;;;12.60;101198.00;;;;5049006;28;20106;-69
2021/08/14 09:15:29;;;;;;;2.67;0.63;;;;;12.60;101197.00;;;;5049415;28;20040;-70
2021/08/14 09:18:03;;;;;;;0.65;0.50;;;;;12.60;101194.00;;;;5048814;28;20116;-70
2021/08/14 09:20:31;;;;;;;0.93;0.60;;;;;12.50;101191.00;;;;5049331;28;20059;-70
2021/08/14 09:23:05;;;;;;;4.93;0.50;;;;;12.50;101190.00;;;;5049237;28;20143;-70
2021/08/14 09:25:42;;;;;;;0.63;0.63;;;;;12.50;101188.00;;;;5049466;28;20029;-70
2021/08/14 09:28:10;;;;;;;0.77;0.77;;;;;12.50;101191.00;;;;5048681;28;20029;-70
2021/08/14 09:30:55;;;;;;;0.95;0.60;;;;;12.60;101200.00;;;;5048514;28;20492;-70
2021/08/14 09:33:25;;;;;;;2.83;0.88;;;;;12.60;101203.00;;;;5048942;28;20559;-70
2021/08/14 09:36:00;;;;;;;0.95;0.70;;;;;12.60;101206.00;;;;5048820;28;20512;-70
2021/08/14 09:38:47;;;;;;;2.08;0.98;;;;;12.60;101195.00;;;;5048583;28;20021;-69
2021/08/14 09:41:15;;;;;;;0.60;0.60;;;;;12.60;101206.00;;;;5047694;28;20404;-68
2021/08/14 09:43:43;;;;;;;6.30;4.47;;;;;12.60;101202.00;;;;5048050;28;20472;-70
2021/08/14 09:46:10;;;;;;;3.03;0.70;;;;;12.60;101195.00;;;;5048545;28;20029;-70
2021/08/14 09:48:38;;;;;;;1.10;1.00;;;;;12.60;101197.00;;;;5048471;28;20111;-71
2021/08/14 09:51:05;;;;;;;1.23;1.05;;;;;12.60;101195.00;;;;5047667;28;20028;-70
2021/08/14 09:53:32;;;;;;;1.70;0.90;;;;;12.60;101200.00;;;;5047435;28;20033;-70
2021/08/14 09:56:10;;;;;;;1.17;1.00;;;;;12.60;101206.00;;;;5047965;28;20029;-70
2021/08/14 09:58:38;;;;;;;1.67;0.82;;;;;12.60;101213.00;;;;5047617;28;20502;-70
2021/08/14 10:01:06;;;;;;;3.33;1.10;;;;;12.60;101224.00;;;;5060615;28;20028;-68
2021/08/14 10:03:34;;;;;;;3.42;0.85;;;;;12.60;101215.00;;;;5066793;28;20047;-71
2021/08/14 10:06:04;;;;;;;0.93;0.85;;;;;12.60;101211.00;;;;5067294;28;20040;-70
2021/08/14 10:08:32;;;;;;;5.45;0.90;;;;;12.60;101223.00;;;;5067482;28;20052;-69
2021/08/14 10:10:58;;;;;;;3.65;1.40;;;;;12.60;101223.00;;;;5068570;28;20031;-71
2021/08/14 10:13:25;;;;;;;0.95;0.70;;;;;12.60;101204.00;;;;5067478;28;20035;-69
2021/08/14 10:15:52;;;;;;;4.85;1.08;;;;;12.60;101216.00;;;;5067292;28;20036;-70
2021/08/14 10:18:19;;;;;;;11.85;2.40;;;;;12.70;101215.00;;;;5066752;28;20101;-69
2021/08/14 10:20:47;;;;;;;11.75;2.08;;;;;12.70;101220.00;;;;5067532;28;20029;-70
2021/08/14 10:23:21;;;;;;;4.07;0.95;;;;;12.80;101248.00;;;;5066899;28;20508;-70
2021/08/14 10:25:58;;;;;;;4.93;1.20;;;;;12.80;101241.00;;;;5067220;28;20040;-72
2021/08/14 10:28:46;;;;;;;7.53;1.90;;;;;12.90;101239.00;;;;5067124;28;20031;-70
2021/08/14 10:31:31;;;;;;;3.17;0.77;;;;;13.00;101238.00;;;;5064946;28;20652;-70
2021/08/14 10:33:59;;;;;;;1.63;1.30;;;;;13.00;101236.00;;;;5039141;28;20033;-69
2021/08/14 10:36:27;;;;;;;22.63;2.35;;;;;13.10;101238.00;;;;5066642;28;20044;-68
2021/08/14 10:38:54;;;;;;;10.30;2.30;;;;;13.20;101226.00;;;;5065392;28;20389;-71
2021/08/14 10:41:36;;;;;;;12.32;1.55;;;;;13.30;101232.00;;;;5067266;28;20494;-70
2021/08/14 10:44:03;;;;;;;17.67;2.45;;;;;13.40;101242.00;;;;5067468;28;20047;-69
2021/08/14 10:46:49;;;;;;;12.45;1.42;;;;;13.50;101232.00;;;;5067204;28;20040;-68
2021/08/14 10:49:36;;;;;;;9.10;1.92;;;;;13.70;101227.00;;;;5067169;28;20032;-70
2021/08/14 10:52:03;;;;;;;15.82;4.28;;;;;13.80;101230.00;;;;5066845;28;20052;-71
2021/08/14 10:54:30;;;;;;;6.75;1.60;;;;;13.80;101254.00;;;;5048019;28;20033;-69
2021/08/14 10:57:04;;;;;;;4.90;1.42;;;;;13.90;101235.00;;;;5067561;28;20044;-71
2021/08/14 10:59:39;;;;;;;3.65;1.05;;;;;14.40;101244.00;;;;5065388;28;20024;-71
2021/08/14 11:02:29;;;;;;;8.23;1.63;;;;;14.70;101176.00;;;;5046727;28;20412;-71
2021/08/14 11:05:01;;;;;;;4.88;1.77;;;;;15.50;101208.00;;;;5046992;28;20029;-70
2021/08/14 11:07:27;;;;;;;8.60;3.63;;;;;15.30;101219.00;;;;5046776;28;20529;-71
2021/08/14 11:09:54;;;;;;;14.57;4.00;;;;;16.20;101143.00;;;;5046448;28;20048;-71
2021/08/14 11:12:36;;;;;;;11.90;4.60;;;;;18.70;101102.00;;;;5046369;28;20036;-69
2021/08/14 11:15:22;;;;;;;16.08;3.50;;;;;19.80;101131.00;;;;5046844;28;20031;-69
2021/08/14 11:17:49;;;;;;;7.07;2.70;;;;;21.00;101042.00;;;;5046535;28;20024;-72
2021/08/14 11:20:25;;;;;;;6.80;3.08;;;;;21.90;101023.00;;;;5046838;28;20029;-71
2021/08/14 11:22:56;;;;;;;9.75;3.20;;;;;22.10;100982.00;;;;5046176;28;20033;-71
2021/08/14 11:25:29;;;;;;;26.20;4.72;;;;;22.80;100951.00;;;;5046947;28;20108;-71
2021/08/14 11:27:58;;;;;;;17.23;3.03;;;;;22.80;100961.00;;;;5047480;28;20029;-70
2021/08/14 11:30:27;;;;;;;3.80;2.40;;;;;23.00;100986.00;;;;5046612;28;20033;-70
2021/08/14 11:32:55;;;;;;;12.10;3.13;;;;;23.40;100998.00;;;;5046505;28;20033;-70
2021/08/14 11:35:23;;;;;;;4.50;3.10;;;;;23.60;101002.00;;;;5045765;28;20475;-70
2021/08/14 11:37:53;;;;;;;14.15;4.97;;;;;23.70;101016.00;;;;5046840;28;20060;-69
2021/08/14 11:40:22;;;;;;;14.88;4.45;;;;;23.70;101031.00;;;;5046359;28;20079;-72
2021/08/14 11:43:00;;;;;;;11.35;3.83;;;;;24.30;101055.00;;;;5046281;28;20033;-70
2021/08/14 11:45:29;;;;;;;25.88;4.43;;;;;24.00;101034.00;;;;5046721;28;20392;-69
2021/08/14 11:47:57;;;;;;;7.68;2.78;;;;;23.70;101028.00;;;;5046280;28;20536;-72
2021/08/14 11:50:24;;;;;;;14.32;2.50;;;;;23.90;101019.00;;;;5047010;28;20025;-71
2021/08/14 11:52:51;;;;;;;17.70;11.23;;;;;24.40;100999.00;;;;5046081;28;20060;-70
2021/08/14 11:55:17;;;;;;;8.25;1.95;;;;;24.20;100994.00;;;;5046291;28;20028;-71
2021/08/14 11:57:44;;;;;;;7.95;2.40;;;;;24.50;101035.00;;;;5046029;28;20447;-70
2021/08/14 12:00:24;;;;;;;7.82;2.08;;;;;25.30;101047.00;;;;5046006;28;20423;-71
2021/08/14 12:03:07;;;;;;;2.75;1.90;;;;;25.90;101043.00;;;;5046251;28;20331;-70
2021/08/14 12:05:41;;;;;;;19.98;5.05;;;;;25.50;101058.00;;;;5046052;28;20385;-70
2021/08/14 12:08:08;;;;;;;6.97;2.70;;;;;25.40;101036.00;;;;5045854;28;20041;-69
2021/08/14 12:10:36;;;;;;;2.72;1.90;;;;;25.90;101043.00;;;;5028052;28;20032;-70
2021/08/14 12:13:07;;;;;;;3.45;1.98;;;;;26.20;101045.00;;;;5046191;28;20112;-70